Weather at George Bush Intercontinental Houston Airport

Public forecast

Using degrees Fahrenheit for public forecast. Weather courtesy of forecast.io.

Current aviation weather report (METAR) for George Bush Intercontinental Houston Airport

Retrieved 2021/10/19 20:53 UTC (52 minutes ago):

KIAH 192053Z 12008KT 10SM SCT040 BKN250 27/18 A3002 RMK AO2 SLP166 T02720178 56019

Aviation forecast (TAF) for George Bush Intercontinental Houston Airport

Retrieved 2021/10/19 18:22 UTC (3 hours ago):

TAF KIAH 191720Z 1918/2024 12008KT P6SM SCT250 FM192100 13009KT P6SM SCT030 BKN250 FM200200 VRB02KT P6SM SCT250 FM201500 09005KT P6SM SCT025 BKN250